sensor_id;sensor_type;location;lat;lon;timestamp;P1;durP1;ratioP1;P2;durP2;ratioP2
47715;SDS011;33476;50.984;3.538;2023-03-01T00:00:10;8.85;;;4.47;;
47715;SDS011;33476;50.984;3.538;2023-03-01T00:02:36;7.07;;;4.05;;
47715;SDS011;33476;50.984;3.538;2023-03-01T00:05:01;7.05;;;4.53;;
47715;SDS011;33476;50.984;3.538;2023-03-01T00:07:27;9.68;;;5.28;;
47715;SDS011;33476;50.984;3.538;2023-03-01T00:09:53;9.18;;;4.68;;
47715;SDS011;33476;50.984;3.538;2023-03-01T00:12:19;10.50;;;4.57;;
47715;SDS011;33476;50.984;3.538;2023-03-01T00:14:44;8.82;;;4.85;;
47715;SDS011;33476;50.984;3.538;2023-03-01T00:17:10;8.85;;;4.50;;
47715;SDS011;33476;50.984;3.538;2023-03-01T00:19:35;9.00;;;4.32;;
47715;SDS011;33476;50.984;3.538;2023-03-01T00:22:02;7.57;;;4.63;;
47715;SDS011;33476;50.984;3.538;2023-03-01T00:24:27;10.27;;;4.28;;
47715;SDS011;33476;50.984;3.538;2023-03-01T00:26:53;7.00;;;4.35;;
47715;SDS011;33476;50.984;3.538;2023-03-01T00:29:25;8.13;;;4.18;;
47715;SDS011;33476;50.984;3.538;2023-03-01T00:31:51;8.20;;;4.30;;
47715;SDS011;33476;50.984;3.538;2023-03-01T00:34:16;7.25;;;3.92;;
47715;SDS011;33476;50.984;3.538;2023-03-01T00:36:42;5.35;;;3.42;;
47715;SDS011;33476;50.984;3.538;2023-03-01T00:39:10;6.88;;;3.55;;
47715;SDS011;33476;50.984;3.538;2023-03-01T00:41:38;8.00;;;3.90;;
47715;SDS011;33476;50.984;3.538;2023-03-01T00:44:05;7.57;;;4.05;;
47715;SDS011;33476;50.984;3.538;2023-03-01T00:46:30;7.63;;;4.13;;
47715;SDS011;33476;50.984;3.538;2023-03-01T00:48:56;6.88;;;4.05;;
47715;SDS011;33476;50.984;3.538;2023-03-01T00:51:24;6.57;;;4.13;;
47715;SDS011;33476;50.984;3.538;2023-03-01T00:53:53;7.70;;;4.05;;
47715;SDS011;33476;50.984;3.538;2023-03-01T00:56:20;9.77;;;4.15;;
47715;SDS011;33476;50.984;3.538;2023-03-01T00:58:45;6.47;;;3.80;;
47715;SDS011;33476;50.984;3.538;2023-03-01T01:01:15;8.98;;;3.58;;
47715;SDS011;33476;50.984;3.538;2023-03-01T01:03:47;7.85;;;3.90;;
47715;SDS011;33476;50.984;3.538;2023-03-01T01:06:24;6.78;;;3.63;;
47715;SDS011;33476;50.984;3.538;2023-03-01T01:08:51;8.80;;;4.28;;
47715;SDS011;33476;50.984;3.538;2023-03-01T01:11:18;4.28;;;3.25;;
47715;SDS011;33476;50.984;3.538;2023-03-01T01:13:45;5.68;;;3.80;;
47715;SDS011;33476;50.984;3.538;2023-03-01T01:16:12;6.35;;;3.72;;
47715;SDS011;33476;50.984;3.538;2023-03-01T01:18:38;5.95;;;3.50;;
47715;SDS011;33476;50.984;3.538;2023-03-01T01:21:05;4.72;;;3.45;;
47715;SDS011;33476;50.984;3.538;2023-03-01T01:23:32;7.82;;;3.50;;
47715;SDS011;33476;50.984;3.538;2023-03-01T01:25:57;7.13;;;3.33;;
47715;SDS011;33476;50.984;3.538;2023-03-01T01:28:28;5.07;;;3.40;;
47715;SDS011;33476;50.984;3.538;2023-03-01T01:30:53;6.85;;;3.53;;
47715;SDS011;33476;50.984;3.538;2023-03-01T01:33:19;4.75;;;3.33;;
47715;SDS011;33476;50.984;3.538;2023-03-01T01:35:44;6.63;;;3.20;;
47715;SDS011;33476;50.984;3.538;2023-03-01T01:38:10;5.95;;;3.30;;
47715;SDS011;33476;50.984;3.538;2023-03-01T01:40:42;5.30;;;3.13;;
47715;SDS011;33476;50.984;3.538;2023-03-01T01:43:13;5.35;;;3.50;;
47715;SDS011;33476;50.984;3.538;2023-03-01T01:45:44;5.30;;;3.70;;
47715;SDS011;33476;50.984;3.538;2023-03-01T01:48:13;8.15;;;3.90;;
47715;SDS011;33476;50.984;3.538;2023-03-01T01:50:43;8.40;;;3.63;;
47715;SDS011;33476;50.984;3.538;2023-03-01T01:53:11;8.35;;;3.95;;
47715;SDS011;33476;50.984;3.538;2023-03-01T01:55:42;8.45;;;3.88;;
47715;SDS011;33476;50.984;3.538;2023-03-01T01:58:10;6.53;;;4.20;;
47715;SDS011;33476;50.984;3.538;2023-03-01T02:00:39;8.02;;;4.55;;
47715;SDS011;33476;50.984;3.538;2023-03-01T02:03:07;6.43;;;4.00;;
47715;SDS011;33476;50.984;3.538;2023-03-01T02:08:15;7.07;;;3.88;;
47715;SDS011;33476;50.984;3.538;2023-03-01T02:10:43;5.70;;;3.83;;
47715;SDS011;33476;50.984;3.538;2023-03-01T02:13:10;8.68;;;4.18;;
47715;SDS011;33476;50.984;3.538;2023-03-01T02:15:36;8.05;;;4.18;;
47715;SDS011;33476;50.984;3.538;2023-03-01T02:18:05;8.82;;;4.22;;
47715;SDS011;33476;50.984;3.538;2023-03-01T02:20:38;9.02;;;4.75;;
47715;SDS011;33476;50.984;3.538;2023-03-01T02:23:15;8.43;;;4.70;;
47715;SDS011;33476;50.984;3.538;2023-03-01T02:28:39;7.97;;;4.65;;
47715;SDS011;33476;50.984;3.538;2023-03-01T02:31:08;10.90;;;5.22;;
47715;SDS011;33476;50.984;3.538;2023-03-01T02:33:54;9.38;;;4.53;;
47715;SDS011;33476;50.984;3.538;2023-03-01T02:36:23;8.32;;;4.65;;
47715;SDS011;33476;50.984;3.538;2023-03-01T02:38:52;7.15;;;4.53;;
47715;SDS011;33476;50.984;3.538;2023-03-01T02:41:21;12.88;;;5.38;;
47715;SDS011;33476;50.984;3.538;2023-03-01T02:43:48;9.80;;;5.63;;
47715;SDS011;33476;50.984;3.538;2023-03-01T02:46:18;11.40;;;4.72;;
47715;SDS011;33476;50.984;3.538;2023-03-01T02:53:53;9.38;;;5.53;;
47715;SDS011;33476;50.984;3.538;2023-03-01T02:56:23;11.60;;;5.75;;
47715;SDS011;33476;50.984;3.538;2023-03-01T02:58:49;8.88;;;5.90;;
47715;SDS011;33476;50.984;3.538;2023-03-01T03:01:17;10.02;;;5.72;;
47715;SDS011;33476;50.984;3.538;2023-03-01T03:03:43;10.95;;;5.90;;
47715;SDS011;33476;50.984;3.538;2023-03-01T03:06:09;11.55;;;5.88;;
47715;SDS011;33476;50.984;3.538;2023-03-01T03:08:35;13.25;;;6.43;;
47715;SDS011;33476;50.984;3.538;2023-03-01T03:11:00;8.93;;;5.82;;
47715;SDS011;33476;50.984;3.538;2023-03-01T03:13:25;12.48;;;6.82;;
47715;SDS011;33476;50.984;3.538;2023-03-01T03:15:53;15.38;;;5.63;;
47715;SDS011;33476;50.984;3.538;2023-03-01T03:18:22;12.77;;;6.53;;
47715;SDS011;33476;50.984;3.538;2023-03-01T03:20:51;12.23;;;6.68;;
47715;SDS011;33476;50.984;3.538;2023-03-01T03:23:18;12.88;;;6.70;;
47715;SDS011;33476;50.984;3.538;2023-03-01T03:25:44;13.27;;;6.97;;
47715;SDS011;33476;50.984;3.538;2023-03-01T03:28:13;11.07;;;6.30;;
47715;SDS011;33476;50.984;3.538;2023-03-01T03:30:40;11.48;;;6.57;;
47715;SDS011;33476;50.984;3.538;2023-03-01T03:33:07;12.30;;;6.93;;
47715;SDS011;33476;50.984;3.538;2023-03-01T03:35:38;13.23;;;7.13;;
47715;SDS011;33476;50.984;3.538;2023-03-01T03:38:12;11.30;;;7.22;;
47715;SDS011;33476;50.984;3.538;2023-03-01T03:40:41;14.60;;;7.43;;
47715;SDS011;33476;50.984;3.538;2023-03-01T03:43:08;12.32;;;6.68;;
47715;SDS011;33476;50.984;3.538;2023-03-01T03:45:37;8.30;;;5.45;;
47715;SDS011;33476;50.984;3.538;2023-03-01T03:48:04;13.00;;;6.47;;
47715;SDS011;33476;50.984;3.538;2023-03-01T03:50:31;12.40;;;7.07;;
47715;SDS011;33476;50.984;3.538;2023-03-01T03:52:57;16.77;;;7.93;;
47715;SDS011;33476;50.984;3.538;2023-03-01T03:55:22;14.02;;;7.47;;
47715;SDS011;33476;50.984;3.538;2023-03-01T03:57:52;17.42;;;8.00;;
47715;SDS011;33476;50.984;3.538;2023-03-01T04:00:19;15.23;;;7.35;;
47715;SDS011;33476;50.984;3.538;2023-03-01T04:02:46;15.23;;;8.15;;
47715;SDS011;33476;50.984;3.538;2023-03-01T04:05:13;13.68;;;8.10;;
47715;SDS011;33476;50.984;3.538;2023-03-01T04:07:40;14.48;;;8.15;;
47715;SDS011;33476;50.984;3.538;2023-03-01T04:10:11;15.82;;;8.00;;
47715;SDS011;33476;50.984;3.538;2023-03-01T04:12:38;13.25;;;7.40;;
47715;SDS011;33476;50.984;3.538;2023-03-01T04:15:04;15.75;;;7.63;;
47715;SDS011;33476;50.984;3.538;2023-03-01T04:17:38;15.48;;;7.93;;
47715;SDS011;33476;50.984;3.538;2023-03-01T04:20:12;13.43;;;8.05;;
47715;SDS011;33476;50.984;3.538;2023-03-01T04:22:42;14.32;;;7.80;;
47715;SDS011;33476;50.984;3.538;2023-03-01T04:25:11;13.93;;;7.95;;
47715;SDS011;33476;50.984;3.538;2023-03-01T04:27:39;15.23;;;7.38;;
47715;SDS011;33476;50.984;3.538;2023-03-01T04:30:05;15.75;;;8.02;;
47715;SDS011;33476;50.984;3.538;2023-03-01T04:32:31;14.13;;;7.95;;
47715;SDS011;33476;50.984;3.538;2023-03-01T04:34:57;17.20;;;8.48;;
47715;SDS011;33476;50.984;3.538;2023-03-01T04:37:22;16.42;;;8.13;;
47715;SDS011;33476;50.984;3.538;2023-03-01T04:39:49;14.43;;;7.88;;
47715;SDS011;33476;50.984;3.538;2023-03-01T04:42:14;13.52;;;7.82;;
47715;SDS011;33476;50.984;3.538;2023-03-01T04:44:41;14.93;;;7.80;;
47715;SDS011;33476;50.984;3.538;2023-03-01T04:47:07;15.63;;;7.82;;
47715;SDS011;33476;50.984;3.538;2023-03-01T04:49:33;14.73;;;7.90;;
47715;SDS011;33476;50.984;3.538;2023-03-01T04:51:58;14.85;;;8.02;;
47715;SDS011;33476;50.984;3.538;2023-03-01T04:54:26;16.13;;;8.60;;
47715;SDS011;33476;50.984;3.538;2023-03-01T04:56:55;17.73;;;8.70;;
47715;SDS011;33476;50.984;3.538;2023-03-01T04:59:21;13.65;;;7.78;;
47715;SDS011;33476;50.984;3.538;2023-03-01T05:01:47;13.90;;;8.32;;
47715;SDS011;33476;50.984;3.538;2023-03-01T05:04:13;14.50;;;7.72;;
47715;SDS011;33476;50.984;3.538;2023-03-01T05:06:39;15.50;;;8.38;;
47715;SDS011;33476;50.984;3.538;2023-03-01T05:09:05;17.10;;;8.75;;
47715;SDS011;33476;50.984;3.538;2023-03-01T05:11:30;16.20;;;7.95;;
47715;SDS011;33476;50.984;3.538;2023-03-01T05:14:00;16.55;;;8.30;;
47715;SDS011;33476;50.984;3.538;2023-03-01T05:16:27;15.40;;;8.30;;
47715;SDS011;33476;50.984;3.538;2023-03-01T05:18:52;19.45;;;8.20;;
47715;SDS011;33476;50.984;3.538;2023-03-01T05:21:17;19.80;;;8.23;;
47715;SDS011;33476;50.984;3.538;2023-03-01T05:23:43;15.60;;;7.93;;
47715;SDS011;33476;50.984;3.538;2023-03-01T05:26:09;16.80;;;7.95;;
47715;SDS011;33476;50.984;3.538;2023-03-01T05:28:34;15.63;;;8.63;;
47715;SDS011;33476;50.984;3.538;2023-03-01T05:31:00;14.52;;;7.78;;
47715;SDS011;33476;50.984;3.538;2023-03-01T05:33:26;14.15;;;7.68;;
47715;SDS011;33476;50.984;3.538;2023-03-01T05:35:52;15.82;;;7.60;;
47715;SDS011;33476;50.984;3.538;2023-03-01T05:38:18;14.55;;;7.57;;
47715;SDS011;33476;50.984;3.538;2023-03-01T05:40:45;14.15;;;7.25;;
47715;SDS011;33476;50.984;3.538;2023-03-01T05:43:13;14.75;;;7.35;;
47715;SDS011;33476;50.984;3.538;2023-03-01T05:45:40;16.30;;;7.25;;
47715;SDS011;33476;50.984;3.538;2023-03-01T05:48:06;13.20;;;7.85;;
47715;SDS011;33476;50.984;3.538;2023-03-01T05:50:34;14.18;;;7.40;;
47715;SDS011;33476;50.984;3.538;2023-03-01T05:53:03;12.80;;;7.15;;
47715;SDS011;33476;50.984;3.538;2023-03-01T05:55:33;13.15;;;7.28;;
47715;SDS011;33476;50.984;3.538;2023-03-01T05:58:00;14.55;;;7.60;;
47715;SDS011;33476;50.984;3.538;2023-03-01T06:00:27;14.07;;;7.63;;
47715;SDS011;33476;50.984;3.538;2023-03-01T06:02:53;12.52;;;6.80;;
47715;SDS011;33476;50.984;3.538;2023-03-01T06:05:19;14.20;;;6.50;;
47715;SDS011;33476;50.984;3.538;2023-03-01T06:07:45;16.05;;;7.32;;
47715;SDS011;33476;50.984;3.538;2023-03-01T06:10:11;12.82;;;7.38;;
47715;SDS011;33476;50.984;3.538;2023-03-01T06:12:37;15.38;;;7.32;;
47715;SDS011;33476;50.984;3.538;2023-03-01T06:15:04;18.10;;;8.52;;
47715;SDS011;33476;50.984;3.538;2023-03-01T06:17:31;22.80;;;9.30;;
47715;SDS011;33476;50.984;3.538;2023-03-01T06:20:02;23.40;;;9.55;;
47715;SDS011;33476;50.984;3.538;2023-03-01T06:22:28;18.45;;;8.70;;
47715;SDS011;33476;50.984;3.538;2023-03-01T06:24:53;24.83;;;9.68;;
47715;SDS011;33476;50.984;3.538;2023-03-01T06:27:19;17.95;;;8.88;;
47715;SDS011;33476;50.984;3.538;2023-03-01T06:29:44;17.88;;;9.20;;
47715;SDS011;33476;50.984;3.538;2023-03-01T06:32:10;17.40;;;8.93;;
47715;SDS011;33476;50.984;3.538;2023-03-01T06:34:35;17.38;;;8.93;;
47715;SDS011;33476;50.984;3.538;2023-03-01T06:37:00;19.17;;;9.18;;
47715;SDS011;33476;50.984;3.538;2023-03-01T06:39:27;19.02;;;9.13;;
47715;SDS011;33476;50.984;3.538;2023-03-01T06:41:53;19.42;;;9.18;;
47715;SDS011;33476;50.984;3.538;2023-03-01T06:44:18;17.85;;;8.85;;
47715;SDS011;33476;50.984;3.538;2023-03-01T06:46:43;17.08;;;8.32;;
47715;SDS011;33476;50.984;3.538;2023-03-01T06:49:09;17.33;;;8.07;;
47715;SDS011;33476;50.984;3.538;2023-03-01T06:51:35;12.82;;;6.47;;
47715;SDS011;33476;50.984;3.538;2023-03-01T06:54:02;16.30;;;8.10;;
47715;SDS011;33476;50.984;3.538;2023-03-01T06:56:28;14.20;;;7.55;;
47715;SDS011;33476;50.984;3.538;2023-03-01T06:58:54;15.07;;;7.13;;
47715;SDS011;33476;50.984;3.538;2023-03-01T07:01:19;13.05;;;7.07;;
47715;SDS011;33476;50.984;3.538;2023-03-01T07:03:44;13.77;;;6.28;;
47715;SDS011;33476;50.984;3.538;2023-03-01T07:06:10;12.57;;;6.47;;
47715;SDS011;33476;50.984;3.538;2023-03-01T07:08:35;15.10;;;7.97;;
47715;SDS011;33476;50.984;3.538;2023-03-01T07:11:01;14.60;;;6.93;;
47715;SDS011;33476;50.984;3.538;2023-03-01T07:13:28;14.82;;;7.28;;
47715;SDS011;33476;50.984;3.538;2023-03-01T07:15:53;12.73;;;6.78;;
47715;SDS011;33476;50.984;3.538;2023-03-01T07:18:19;12.80;;;6.85;;
47715;SDS011;33476;50.984;3.538;2023-03-01T07:20:44;13.52;;;6.70;;
47715;SDS011;33476;50.984;3.538;2023-03-01T07:23:09;12.52;;;7.35;;
47715;SDS011;33476;50.984;3.538;2023-03-01T07:25:35;22.33;;;7.47;;
47715;SDS011;33476;50.984;3.538;2023-03-01T07:28:00;16.25;;;7.32;;
47715;SDS011;33476;50.984;3.538;2023-03-01T07:30:26;14.93;;;6.90;;
47715;SDS011;33476;50.984;3.538;2023-03-01T07:32:53;13.90;;;7.50;;
47715;SDS011;33476;50.984;3.538;2023-03-01T07:35:20;14.85;;;7.43;;
47715;SDS011;33476;50.984;3.538;2023-03-01T07:37:46;15.52;;;6.82;;
47715;SDS011;33476;50.984;3.538;2023-03-01T07:40:11;13.77;;;7.05;;
47715;SDS011;33476;50.984;3.538;2023-03-01T07:42:37;12.40;;;6.22;;
47715;SDS011;33476;50.984;3.538;2023-03-01T07:45:03;13.40;;;6.20;;
47715;SDS011;33476;50.984;3.538;2023-03-01T07:47:29;14.45;;;6.50;;
47715;SDS011;33476;50.984;3.538;2023-03-01T07:49:55;11.65;;;5.97;;
47715;SDS011;33476;50.984;3.538;2023-03-01T07:52:20;13.63;;;6.40;;
47715;SDS011;33476;50.984;3.538;2023-03-01T07:54:46;13.23;;;6.50;;
47715;SDS011;33476;50.984;3.538;2023-03-01T07:57:11;13.73;;;6.63;;
47715;SDS011;33476;50.984;3.538;2023-03-01T07:59:36;12.98;;;6.43;;
47715;SDS011;33476;50.984;3.538;2023-03-01T08:02:02;12.73;;;6.35;;
47715;SDS011;33476;50.984;3.538;2023-03-01T08:04:27;11.27;;;6.38;;
47715;SDS011;33476;50.984;3.538;2023-03-01T08:06:53;12.48;;;6.50;;
47715;SDS011;33476;50.984;3.538;2023-03-01T08:09:19;13.18;;;6.43;;
47715;SDS011;33476;50.984;3.538;2023-03-01T08:11:45;9.63;;;5.68;;
47715;SDS011;33476;50.984;3.538;2023-03-01T08:14:11;13.65;;;6.35;;
47715;SDS011;33476;50.984;3.538;2023-03-01T08:16:36;10.30;;;5.88;;
47715;SDS011;33476;50.984;3.538;2023-03-01T08:19:05;11.90;;;6.10;;
47715;SDS011;33476;50.984;3.538;2023-03-01T08:21:32;12.05;;;6.10;;
47715;SDS011;33476;50.984;3.538;2023-03-01T08:23:59;11.27;;;6.43;;
47715;SDS011;33476;50.984;3.538;2023-03-01T08:26:29;12.35;;;6.13;;
47715;SDS011;33476;50.984;3.538;2023-03-01T08:28:54;10.10;;;5.18;;
47715;SDS011;33476;50.984;3.538;2023-03-01T08:31:27;13.25;;;5.70;;
47715;SDS011;33476;50.984;3.538;2023-03-01T08:33:55;11.57;;;5.82;;
47715;SDS011;33476;50.984;3.538;2023-03-01T08:36:23;12.63;;;6.22;;
47715;SDS011;33476;50.984;3.538;2023-03-01T08:38:50;11.90;;;6.18;;
47715;SDS011;33476;50.984;3.538;2023-03-01T08:41:16;9.18;;;5.75;;
47715;SDS011;33476;50.984;3.538;2023-03-01T08:43:41;12.25;;;5.80;;
47715;SDS011;33476;50.984;3.538;2023-03-01T08:46:07;13.15;;;5.03;;
47715;SDS011;33476;50.984;3.538;2023-03-01T08:48:32;17.20;;;5.85;;
47715;SDS011;33476;50.984;3.538;2023-03-01T08:51:06;11.07;;;5.40;;
47715;SDS011;33476;50.984;3.538;2023-03-01T08:53:36;8.45;;;5.00;;
47715;SDS011;33476;50.984;3.538;2023-03-01T08:56:02;13.13;;;4.72;;
47715;SDS011;33476;50.984;3.538;2023-03-01T08:58:28;14.00;;;3.92;;
47715;SDS011;33476;50.984;3.538;2023-03-01T09:00:54;7.15;;;3.20;;
47715;SDS011;33476;50.984;3.538;2023-03-01T09:03:21;7.35;;;3.47;;
47715;SDS011;33476;50.984;3.538;2023-03-01T09:05:46;4.05;;;2.63;;
47715;SDS011;33476;50.984;3.538;2023-03-01T09:08:14;8.25;;;2.90;;
47715;SDS011;33476;50.984;3.538;2023-03-01T09:10:39;5.53;;;2.70;;
47715;SDS011;33476;50.984;3.538;2023-03-01T09:13:05;4.60;;;2.75;;
47715;SDS011;33476;50.984;3.538;2023-03-01T09:15:30;7.00;;;3.20;;
47715;SDS011;33476;50.984;3.538;2023-03-01T09:17:56;4.65;;;2.42;;
47715;SDS011;33476;50.984;3.538;2023-03-01T09:20:21;5.30;;;2.83;;
47715;SDS011;33476;50.984;3.538;2023-03-01T09:22:46;4.57;;;3.00;;
47715;SDS011;33476;50.984;3.538;2023-03-01T09:25:12;5.50;;;3.63;;
47715;SDS011;33476;50.984;3.538;2023-03-01T09:27:37;5.47;;;2.72;;
47715;SDS011;33476;50.984;3.538;2023-03-01T09:30:03;6.10;;;3.05;;
47715;SDS011;33476;50.984;3.538;2023-03-01T09:32:32;4.60;;;2.83;;
47715;SDS011;33476;50.984;3.538;2023-03-01T09:34:57;4.57;;;2.78;;
47715;SDS011;33476;50.984;3.538;2023-03-01T09:37:28;4.65;;;2.88;;
47715;SDS011;33476;50.984;3.538;2023-03-01T09:39:53;3.97;;;2.47;;
47715;SDS011;33476;50.984;3.538;2023-03-01T09:42:19;5.93;;;2.70;;
47715;SDS011;33476;50.984;3.538;2023-03-01T09:47:18;3.92;;;2.80;;
47715;SDS011;33476;50.984;3.538;2023-03-01T09:50:33;6.38;;;3.25;;
47715;SDS011;33476;50.984;3.538;2023-03-01T09:52:46;4.60;;;2.88;;
47715;SDS011;33476;50.984;3.538;2023-03-01T09:55:16;4.90;;;3.25;;
47715;SDS011;33476;50.984;3.538;2023-03-01T09:57:52;7.88;;;3.08;;
47715;SDS011;33476;50.984;3.538;2023-03-01T10:03:08;7.60;;;2.97;;
47715;SDS011;33476;50.984;3.538;2023-03-01T10:06:15;6.05;;;3.03;;
47715;SDS011;33476;50.984;3.538;2023-03-01T10:11:26;5.47;;;3.38;;
47715;SDS011;33476;50.984;3.538;2023-03-01T10:22:02;6.00;;;3.25;;
47715;SDS011;33476;50.984;3.538;2023-03-01T10:24:49;6.80;;;2.80;;
47715;SDS011;33476;50.984;3.538;2023-03-01T10:29:56;6.80;;;2.78;;
47715;SDS011;33476;50.984;3.538;2023-03-01T10:32:31;6.78;;;2.78;;
47715;SDS011;33476;50.984;3.538;2023-03-01T10:34:56;6.00;;;2.53;;
47715;SDS011;33476;50.984;3.538;2023-03-01T10:37:22;4.72;;;2.97;;
47715;SDS011;33476;50.984;3.538;2023-03-01T10:40:03;5.30;;;3.08;;
47715;SDS011;33476;50.984;3.538;2023-03-01T10:42:33;4.97;;;2.72;;
47715;SDS011;33476;50.984;3.538;2023-03-01T10:50:20;5.38;;;2.80;;
47715;SDS011;33476;50.984;3.538;2023-03-01T10:53:03;7.45;;;3.03;;
47715;SDS011;33476;50.984;3.538;2023-03-01T10:55:39;5.82;;;2.95;;
47715;SDS011;33476;50.984;3.538;2023-03-01T10:58:06;4.03;;;2.60;;
47715;SDS011;33476;50.984;3.538;2023-03-01T11:00:55;4.50;;;2.38;;
47715;SDS011;33476;50.984;3.538;2023-03-01T11:03:28;4.45;;;2.30;;
47715;SDS011;33476;50.984;3.538;2023-03-01T11:08:34;8.25;;;2.72;;
47715;SDS011;33476;50.984;3.538;2023-03-01T11:16:41;2.58;;;1.65;;
47715;SDS011;33476;50.984;3.538;2023-03-01T11:21:34;5.38;;;2.22;;
47715;SDS011;33476;50.984;3.538;2023-03-01T11:24:03;10.60;;;2.58;;
47715;SDS011;33476;50.984;3.538;2023-03-01T11:26:31;4.95;;;2.85;;
47715;SDS011;33476;50.984;3.538;2023-03-01T11:29:04;4.85;;;2.70;;
47715;SDS011;33476;50.984;3.538;2023-03-01T11:31:36;5.00;;;2.58;;
47715;SDS011;33476;50.984;3.538;2023-03-01T11:34:11;8.85;;;2.80;;
47715;SDS011;33476;50.984;3.538;2023-03-01T11:39:38;4.82;;;2.80;;
47715;SDS011;33476;50.984;3.538;2023-03-01T11:42:12;6.60;;;2.28;;
47715;SDS011;33476;50.984;3.538;2023-03-01T11:44:43;6.78;;;2.35;;
47715;SDS011;33476;50.984;3.538;2023-03-01T11:47:19;4.82;;;1.98;;
47715;SDS011;33476;50.984;3.538;2023-03-01T11:50:03;6.38;;;2.15;;
47715;SDS011;33476;50.984;3.538;2023-03-01T11:55:03;5.18;;;2.50;;
47715;SDS011;33476;50.984;3.538;2023-03-01T11:57:51;3.75;;;2.20;;
47715;SDS011;33476;50.984;3.538;2023-03-01T12:09:32;4.80;;;1.98;;
47715;SDS011;33476;50.984;3.538;2023-03-01T12:17:46;4.57;;;2.00;;
47715;SDS011;33476;50.984;3.538;2023-03-01T12:20:20;10.00;;;2.58;;
47715;SDS011;33476;50.984;3.538;2023-03-01T12:28:27;4.75;;;2.35;;
47715;SDS011;33476;50.984;3.538;2023-03-01T12:37:54;5.35;;;2.38;;
47715;SDS011;33476;50.984;3.538;2023-03-01T12:40:15;4.35;;;2.28;;
47715;SDS011;33476;50.984;3.538;2023-03-01T12:42:58;10.95;;;2.22;;
47715;SDS011;33476;50.984;3.538;2023-03-01T12:45:32;4.50;;;2.15;;
47715;SDS011;33476;50.984;3.538;2023-03-01T12:48:18;6.13;;;3.53;;
47715;SDS011;33476;50.984;3.538;2023-03-01T12:50:57;6.72;;;2.40;;
47715;SDS011;33476;50.984;3.538;2023-03-01T12:53:27;4.72;;;2.30;;
47715;SDS011;33476;50.984;3.538;2023-03-01T12:55:59;9.02;;;2.47;;
47715;SDS011;33476;50.984;3.538;2023-03-01T13:01:16;3.00;;;2.20;;
47715;SDS011;33476;50.984;3.538;2023-03-01T13:09:30;6.18;;;2.78;;
47715;SDS011;33476;50.984;3.538;2023-03-01T13:11:57;4.45;;;2.47;;
47715;SDS011;33476;50.984;3.538;2023-03-01T13:16:49;14.07;;;2.90;;
47715;SDS011;33476;50.984;3.538;2023-03-01T13:19:17;7.22;;;2.47;;
47715;SDS011;33476;50.984;3.538;2023-03-01T13:21:44;3.88;;;2.17;;
47715;SDS011;33476;50.984;3.538;2023-03-01T13:27:10;3.92;;;1.88;;
47715;SDS011;33476;50.984;3.538;2023-03-01T13:32:21;6.45;;;3.28;;
47715;SDS011;33476;50.984;3.538;2023-03-01T13:37:21;3.78;;;2.28;;
47715;SDS011;33476;50.984;3.538;2023-03-01T13:39:54;4.85;;;2.28;;
47715;SDS011;33476;50.984;3.538;2023-03-01T13:42:30;6.65;;;2.53;;
47715;SDS011;33476;50.984;3.538;2023-03-01T13:44:58;8.55;;;2.75;;
47715;SDS011;33476;50.984;3.538;2023-03-01T13:47:25;3.75;;;2.97;;
47715;SDS011;33476;50.984;3.538;2023-03-01T13:52:34;6.05;;;3.00;;
47715;SDS011;33476;50.984;3.538;2023-03-01T13:58:01;5.38;;;2.03;;
47715;SDS011;33476;50.984;3.538;2023-03-01T14:05:27;8.43;;;3.08;;
47715;SDS011;33476;50.984;3.538;2023-03-01T14:07:53;3.83;;;1.88;;
47715;SDS011;33476;50.984;3.538;2023-03-01T14:10:19;4.05;;;1.80;;
47715;SDS011;33476;50.984;3.538;2023-03-01T14:12:47;4.30;;;2.08;;
47715;SDS011;33476;50.984;3.538;2023-03-01T14:18:59;5.38;;;2.05;;
47715;SDS011;33476;50.984;3.538;2023-03-01T14:21:54;4.35;;;2.05;;
47715;SDS011;33476;50.984;3.538;2023-03-01T14:24:28;4.65;;;2.28;;
47715;SDS011;33476;50.984;3.538;2023-03-01T14:26:57;4.78;;;2.53;;
47715;SDS011;33476;50.984;3.538;2023-03-01T14:29:26;6.60;;;2.35;;
47715;SDS011;33476;50.984;3.538;2023-03-01T14:34:58;5.93;;;2.00;;
47715;SDS011;33476;50.984;3.538;2023-03-01T14:37:34;4.75;;;2.05;;
47715;SDS011;33476;50.984;3.538;2023-03-01T14:40:00;5.55;;;2.28;;
47715;SDS011;33476;50.984;3.538;2023-03-01T14:42:30;4.82;;;2.47;;
47715;SDS011;33476;50.984;3.538;2023-03-01T14:45:00;6.07;;;2.70;;
47715;SDS011;33476;50.984;3.538;2023-03-01T14:47:27;3.33;;;1.85;;
47715;SDS011;33476;50.984;3.538;2023-03-01T14:50:02;4.55;;;2.95;;
47715;SDS011;33476;50.984;3.538;2023-03-01T14:52:39;5.57;;;2.63;;
47715;SDS011;33476;50.984;3.538;2023-03-01T14:55:16;7.95;;;2.72;;
47715;SDS011;33476;50.984;3.538;2023-03-01T14:57:44;4.88;;;2.35;;
47715;SDS011;33476;50.984;3.538;2023-03-01T15:00:22;5.38;;;2.55;;
47715;SDS011;33476;50.984;3.538;2023-03-01T15:02:51;3.17;;;2.17;;
47715;SDS011;33476;50.984;3.538;2023-03-01T15:05:20;6.45;;;2.90;;
47715;SDS011;33476;50.984;3.538;2023-03-01T15:07:54;5.93;;;2.40;;
47715;SDS011;33476;50.984;3.538;2023-03-01T15:10:23;3.55;;;1.80;;
47715;SDS011;33476;50.984;3.538;2023-03-01T15:12:50;4.30;;;2.28;;
47715;SDS011;33476;50.984;3.538;2023-03-01T15:15:31;11.57;;;2.55;;
47715;SDS011;33476;50.984;3.538;2023-03-01T15:17:59;5.18;;;2.30;;
47715;SDS011;33476;50.984;3.538;2023-03-01T15:20:48;2.90;;;1.83;;
47715;SDS011;33476;50.984;3.538;2023-03-01T15:25:49;5.57;;;2.70;;
47715;SDS011;33476;50.984;3.538;2023-03-01T15:28:55;5.28;;;2.72;;
47715;SDS011;33476;50.984;3.538;2023-03-01T15:34:07;8.82;;;3.03;;
47715;SDS011;33476;50.984;3.538;2023-03-01T15:36:53;9.90;;;2.33;;
47715;SDS011;33476;50.984;3.538;2023-03-01T15:39:34;6.95;;;2.40;;
47715;SDS011;33476;50.984;3.538;2023-03-01T15:47:52;13.77;;;2.92;;
47715;SDS011;33476;50.984;3.538;2023-03-01T15:50:39;4.38;;;2.30;;
47715;SDS011;33476;50.984;3.538;2023-03-01T15:53:07;7.43;;;2.60;;
47715;SDS011;33476;50.984;3.538;2023-03-01T15:55:36;5.93;;;2.70;;
47715;SDS011;33476;50.984;3.538;2023-03-01T15:58:03;8.63;;;2.70;;
47715;SDS011;33476;50.984;3.538;2023-03-01T16:00:37;7.07;;;2.75;;
47715;SDS011;33476;50.984;3.538;2023-03-01T16:03:04;11.80;;;3.40;;
47715;SDS011;33476;50.984;3.538;2023-03-01T16:05:30;7.60;;;2.20;;
47715;SDS011;33476;50.984;3.538;2023-03-01T16:07:58;5.10;;;2.47;;
47715;SDS011;33476;50.984;3.538;2023-03-01T16:10:24;6.38;;;2.63;;
47715;SDS011;33476;50.984;3.538;2023-03-01T16:12:50;8.60;;;2.40;;
47715;SDS011;33476;50.984;3.538;2023-03-01T16:15:18;6.63;;;2.95;;
47715;SDS011;33476;50.984;3.538;2023-03-01T16:17:55;8.05;;;2.88;;
47715;SDS011;33476;50.984;3.538;2023-03-01T16:20:20;6.50;;;2.63;;
47715;SDS011;33476;50.984;3.538;2023-03-01T16:22:46;5.47;;;2.22;;
47715;SDS011;33476;50.984;3.538;2023-03-01T16:25:13;5.15;;;2.53;;
47715;SDS011;33476;50.984;3.538;2023-03-01T16:27:44;4.15;;;2.70;;
47715;SDS011;33476;50.984;3.538;2023-03-01T16:30:11;6.50;;;2.85;;
47715;SDS011;33476;50.984;3.538;2023-03-01T16:32:38;5.50;;;2.72;;
47715;SDS011;33476;50.984;3.538;2023-03-01T16:35:05;6.07;;;2.75;;
47715;SDS011;33476;50.984;3.538;2023-03-01T16:37:32;6.28;;;3.10;;
47715;SDS011;33476;50.984;3.538;2023-03-01T16:39:58;4.13;;;2.25;;
47715;SDS011;33476;50.984;3.538;2023-03-01T16:42:24;6.00;;;2.85;;
47715;SDS011;33476;50.984;3.538;2023-03-01T16:44:54;7.68;;;3.28;;
47715;SDS011;33476;50.984;3.538;2023-03-01T16:49:45;6.30;;;2.72;;
47715;SDS011;33476;50.984;3.538;2023-03-01T16:52:11;5.60;;;2.97;;
47715;SDS011;33476;50.984;3.538;2023-03-01T16:54:36;5.05;;;2.72;;
47715;SDS011;33476;50.984;3.538;2023-03-01T16:57:01;7.90;;;3.30;;
47715;SDS011;33476;50.984;3.538;2023-03-01T16:59:27;7.68;;;3.17;;